createdAt,value
2018-09-21T00:00:16.424Z,18.25
2018-09-21T00:01:16.400Z,18.17
2018-09-21T00:02:16.372Z,18.19
2018-09-21T00:03:16.345Z,18.15
2018-09-21T00:04:16.317Z,18.12
2018-09-21T00:05:16.291Z,18.10
2018-09-21T00:06:16.265Z,18.12
2018-09-21T00:07:16.239Z,18.15
2018-09-21T00:08:16.211Z,18.12
2018-09-21T00:09:16.185Z,18.17
2018-09-21T00:10:16.168Z,18.12
2018-09-21T00:11:16.132Z,18.13
2018-09-21T00:12:16.104Z,18.10
2018-09-21T00:13:16.080Z,18.12
2018-09-21T00:14:16.085Z,18.13
2018-09-21T00:15:16.026Z,18.03
2018-09-21T00:16:15.998Z,18.07
2018-09-21T00:17:15.974Z,18.10
2018-09-21T00:18:15.947Z,18.10
2018-09-21T00:19:15.923Z,18.13
2018-09-21T00:20:16.788Z,18.17
2018-09-21T00:21:15.867Z,18.12
2018-09-21T00:22:15.839Z,18.17
2018-09-21T00:23:15.813Z,18.21
2018-09-21T00:24:15.792Z,18.22
2018-09-21T00:25:15.761Z,18.18
2018-09-21T00:26:15.737Z,18.19
2018-09-21T00:27:15.714Z,18.17
2018-09-21T00:28:15.695Z,18.22
2018-09-21T00:29:15.654Z,18.28
2018-09-21T00:30:15.629Z,18.28
2018-09-21T00:31:15.602Z,18.34
2018-09-21T00:32:15.576Z,18.42
2018-09-21T00:33:15.549Z,18.34
2018-09-21T00:34:15.521Z,18.31
2018-09-21T00:35:15.495Z,18.36
2018-09-21T00:36:15.470Z,18.39
2018-09-21T00:37:15.441Z,18.36
2018-09-21T00:38:15.414Z,18.43
2018-09-21T00:39:15.389Z,18.44
2018-09-21T00:40:15.360Z,18.47
2018-09-21T00:41:15.335Z,18.50
2018-09-21T00:42:15.308Z,18.49
2018-09-21T00:43:15.283Z,18.50
2018-09-21T00:44:15.279Z,18.47
2018-09-21T00:45:15.234Z,18.58
2018-09-21T00:46:15.203Z,18.61
2018-09-21T00:47:15.177Z,18.61
2018-09-21T00:48:15.150Z,18.67
2018-09-21T00:49:15.123Z,18.65
2018-09-21T00:50:15.100Z,18.59
2018-09-21T00:51:15.074Z,18.58
2018-09-21T00:52:15.044Z,18.64
2018-09-21T00:53:15.020Z,18.62
2018-09-21T00:54:15.031Z,18.70
2018-09-21T00:55:14.964Z,18.67
2018-09-21T00:56:14.936Z,18.73
2018-09-21T00:57:14.911Z,18.73
2018-09-21T00:58:14.888Z,18.67
2018-09-21T00:59:14.868Z,18.72
2018-09-21T01:00:14.833Z,18.83
2018-09-21T01:01:14.807Z,18.84
2018-09-21T01:02:14.779Z,18.82
2018-09-21T01:03:14.753Z,18.84
2018-09-21T01:04:14.728Z,18.76
2018-09-21T01:05:14.704Z,18.84
2018-09-21T01:06:14.676Z,18.79
2018-09-21T01:07:14.647Z,18.84
2018-09-21T01:08:14.621Z,18.79
2018-09-21T01:09:14.595Z,18.76
2018-09-21T01:10:14.569Z,18.83
2018-09-21T01:11:14.544Z,18.84
2018-09-21T01:12:14.516Z,18.84
2018-09-21T01:13:14.492Z,18.76
2018-09-21T01:14:14.465Z,18.77
2018-09-21T01:15:14.437Z,18.77
2018-09-21T01:16:14.411Z,18.79
2018-09-21T01:17:14.385Z,18.73
2018-09-21T01:18:14.359Z,18.79
2018-09-21T01:19:14.334Z,18.74
2018-09-21T01:20:14.306Z,18.74
2018-09-21T01:21:14.280Z,18.84
2018-09-21T01:22:14.253Z,18.82
2018-09-21T01:23:14.226Z,18.91
2018-09-21T01:24:14.200Z,18.98
2018-09-21T01:25:14.175Z,18.90
2018-09-21T01:26:14.147Z,18.98
2018-09-21T01:27:14.123Z,18.86
2018-09-21T01:28:14.095Z,18.92
2018-09-21T01:29:14.070Z,18.98
2018-09-21T01:30:14.046Z,18.91
2018-09-21T01:31:14.019Z,18.99
2018-09-21T01:32:13.993Z,18.95
2018-09-21T01:33:13.965Z,18.99
2018-09-21T01:34:13.938Z,18.94
2018-09-21T01:35:13.912Z,18.98
2018-09-21T01:36:13.886Z,18.98
2018-09-21T01:37:13.862Z,18.95
2018-09-21T01:38:13.835Z,18.99
2018-09-21T01:39:13.807Z,19.01
2018-09-21T01:40:13.781Z,18.99
2018-09-21T01:41:13.754Z,19.08
2018-09-21T01:42:13.728Z,18.97
2018-09-21T01:43:13.703Z,18.91
2018-09-21T01:44:13.676Z,18.98
2018-09-21T01:45:13.650Z,18.92
2018-09-21T01:46:13.623Z,18.92
2018-09-21T01:47:13.598Z,18.90
2018-09-21T01:48:13.570Z,18.86
2018-09-21T01:49:13.544Z,18.82
2018-09-21T01:50:13.519Z,18.92
2018-09-21T01:51:13.492Z,18.86
2018-09-21T01:52:13.468Z,18.95
2018-09-21T01:53:13.440Z,18.80
2018-09-21T01:54:13.414Z,18.83
2018-09-21T01:55:13.389Z,18.91
2018-09-21T01:56:13.360Z,18.84
2018-09-21T01:57:13.335Z,18.84
2018-09-21T01:58:13.309Z,18.76
2018-09-21T01:59:13.284Z,18.79
2018-09-21T02:00:13.262Z,18.82
2018-09-21T02:01:13.230Z,18.82
2018-09-21T02:02:13.204Z,18.79
2018-09-21T02:03:13.179Z,18.86
2018-09-21T02:04:13.154Z,18.76
2018-09-21T02:05:13.126Z,18.79
2018-09-21T02:06:13.099Z,18.79
2018-09-21T02:07:13.074Z,18.76
2018-09-21T02:08:13.046Z,18.74
2018-09-21T02:09:13.020Z,18.76
2018-09-21T02:10:12.995Z,18.62
2018-09-21T02:11:12.968Z,18.70
2018-09-21T02:12:12.944Z,18.68
2018-09-21T02:13:12.918Z,18.72
2018-09-21T02:14:12.890Z,18.76
2018-09-21T02:15:12.890Z,18.83
2018-09-21T02:16:12.839Z,18.90
2018-09-21T02:17:12.811Z,18.94
2018-09-21T02:18:12.783Z,18.87
2018-09-21T02:19:12.758Z,18.84
2018-09-21T02:20:12.731Z,18.94
2018-09-21T02:21:12.705Z,18.86
2018-09-21T02:22:12.677Z,18.83
2018-09-21T02:23:12.653Z,18.82
2018-09-21T02:24:12.627Z,18.84
2018-09-21T02:25:12.601Z,18.82
2018-09-21T02:26:12.573Z,18.77
2018-09-21T02:27:12.548Z,18.84
2018-09-21T02:28:12.519Z,18.87
2018-09-21T02:29:12.493Z,18.94
2018-09-21T02:30:12.469Z,18.91
2018-09-21T02:31:12.443Z,18.91
2018-09-21T02:32:12.414Z,18.98
2018-09-21T02:33:12.389Z,18.86
2018-09-21T02:34:12.363Z,18.83
2018-09-21T02:35:12.337Z,18.87
2018-09-21T02:36:12.311Z,18.84
2018-09-21T02:37:12.283Z,18.84
2018-09-21T02:38:12.259Z,18.82
2018-09-21T02:39:12.231Z,18.86
2018-09-21T02:40:12.212Z,18.91
2018-09-21T02:41:12.244Z,18.84
2018-09-21T02:42:12.153Z,18.86
2018-09-21T02:43:12.124Z,18.90
2018-09-21T02:44:12.100Z,18.83
2018-09-21T02:45:12.073Z,18.82
2018-09-21T02:46:12.046Z,18.84
2018-09-21T02:47:12.020Z,18.84
2018-09-21T02:48:11.993Z,18.87
2018-09-21T02:49:11.967Z,18.86
2018-09-21T02:50:11.942Z,18.86
2018-09-21T02:51:11.920Z,18.90
2018-09-21T02:52:11.888Z,18.87
2018-09-21T02:53:11.859Z,18.84
2018-09-21T02:54:11.836Z,18.79
2018-09-21T02:55:11.810Z,18.82
2018-09-21T02:56:11.791Z,18.77
2018-09-21T02:57:11.756Z,18.86
2018-09-21T02:58:11.730Z,18.86
2018-09-21T02:59:11.703Z,18.86
2018-09-21T03:00:11.703Z,18.73
2018-09-21T03:01:11.650Z,18.74
2018-09-21T03:02:11.624Z,18.76
2018-09-21T03:03:11.605Z,18.79
2018-09-21T03:04:11.573Z,18.74
2018-09-21T03:05:11.546Z,18.79
2018-09-21T03:06:11.519Z,18.73
2018-09-21T03:07:11.494Z,18.76
2018-09-21T03:08:11.465Z,18.73
2018-09-21T03:09:11.440Z,18.79
2018-09-21T03:10:11.422Z,18.82
2018-09-21T03:11:11.386Z,18.80
2018-09-21T03:12:11.371Z,18.77
2018-09-21T03:13:11.380Z,18.74
2018-09-21T03:14:11.309Z,18.70
2018-09-21T03:15:11.283Z,18.77
2018-09-21T03:16:11.262Z,18.73
2018-09-21T03:17:11.229Z,18.74
2018-09-21T03:18:11.204Z,18.70
2018-09-21T03:19:11.177Z,18.72
2018-09-21T03:20:11.151Z,18.70
2018-09-21T03:21:11.124Z,18.59
2018-09-21T03:22:11.097Z,18.55
2018-09-21T03:23:11.073Z,18.59
2018-09-21T03:24:11.044Z,18.49
2018-09-21T03:25:11.025Z,18.52
2018-09-21T03:26:10.993Z,18.49
2018-09-21T03:27:10.970Z,18.50
2018-09-21T03:28:10.940Z,18.52
2018-09-21T03:29:10.913Z,18.42
2018-09-21T03:30:10.888Z,18.47
2018-09-21T03:31:10.861Z,18.43
2018-09-21T03:32:10.836Z,18.39
2018-09-21T03:33:10.807Z,18.40
2018-09-21T03:34:10.781Z,18.46
2018-09-21T03:35:10.805Z,18.47
2018-09-21T03:36:10.730Z,18.39
2018-09-21T03:37:10.701Z,18.37
2018-09-21T03:38:10.676Z,18.39
2018-09-21T03:39:10.651Z,18.34
2018-09-21T03:40:10.623Z,18.34
2018-09-21T03:41:10.595Z,18.39
2018-09-21T03:42:10.570Z,18.29
2018-09-21T03:43:10.544Z,18.27
2018-09-21T03:44:10.516Z,18.27
2018-09-21T03:45:10.490Z,18.29
2018-09-21T03:46:10.462Z,18.29
2018-09-21T03:47:10.436Z,18.31
2018-09-21T03:48:10.411Z,18.28
2018-09-21T03:49:10.383Z,18.12
2018-09-21T03:50:10.357Z,18.22
2018-09-21T03:51:10.334Z,18.15
2018-09-21T03:52:10.303Z,18.18
2018-09-21T03:53:10.286Z,18.29
2018-09-21T03:54:10.252Z,18.29
2018-09-21T03:55:10.226Z,18.31
2018-09-21T03:56:10.198Z,18.46
2018-09-21T03:57:10.172Z,18.24
2018-09-21T03:58:10.146Z,18.37
2018-09-21T03:59:10.117Z,18.34
2018-09-21T04:00:10.099Z,18.46
2018-09-21T04:01:10.104Z,18.49
2018-09-21T04:02:10.040Z,18.54
2018-09-21T04:03:10.013Z,18.49
2018-09-21T04:04:09.984Z,18.47
2018-09-21T04:05:09.960Z,18.61
2018-09-21T04:06:09.936Z,18.58
2018-09-21T04:07:09.908Z,18.74
2018-09-21T04:08:09.880Z,18.77
2018-09-21T04:09:09.856Z,18.79
2018-09-21T04:10:09.827Z,18.72
2018-09-21T04:11:09.799Z,18.74
2018-09-21T04:12:09.773Z,18.70
2018-09-21T04:13:09.747Z,18.73
2018-09-21T04:14:09.721Z,18.72
2018-09-21T04:15:09.696Z,18.68
2018-09-21T04:16:09.667Z,18.67
2018-09-21T04:17:09.639Z,18.68
2018-09-21T04:18:09.617Z,18.68
2018-09-21T04:19:09.589Z,18.62
2018-09-21T04:20:09.559Z,18.67
2018-09-21T04:21:09.535Z,18.57
2018-09-21T04:22:09.512Z,18.59
2018-09-21T04:23:09.568Z,18.68
2018-09-21T04:24:09.454Z,18.74
2018-09-21T04:25:09.428Z,18.65
2018-09-21T04:26:09.403Z,18.58
2018-09-21T04:27:09.375Z,18.64
2018-09-21T04:28:09.348Z,18.61
2018-09-21T04:29:09.324Z,18.54
2018-09-21T04:30:09.298Z,18.55
2018-09-21T04:31:09.272Z,18.57
2018-09-21T04:32:09.245Z,18.57
2018-09-21T04:33:09.217Z,18.59
2018-09-21T04:34:09.191Z,18.65
2018-09-21T04:35:09.164Z,18.59
2018-09-21T04:36:09.148Z,18.72
2018-09-21T04:37:09.112Z,18.61
2018-09-21T04:38:09.084Z,18.59
2018-09-21T04:39:09.058Z,18.55
2018-09-21T04:40:09.032Z,18.58
2018-09-21T04:41:09.005Z,18.54
2018-09-21T04:42:08.977Z,18.50
2018-09-21T04:43:08.951Z,18.50
2018-09-21T04:44:08.924Z,18.49
2018-09-21T04:45:08.900Z,18.43
2018-09-21T04:46:08.876Z,18.44
2018-09-21T04:47:08.847Z,18.39
2018-09-21T04:48:08.818Z,18.39
2018-09-21T04:49:08.819Z,18.34
2018-09-21T04:50:08.768Z,18.36
2018-09-21T04:51:08.739Z,18.39
2018-09-21T04:52:08.714Z,18.39
2018-09-21T04:53:08.687Z,18.36
2018-09-21T04:54:08.662Z,18.31
2018-09-21T04:55:08.639Z,18.36
2018-09-21T04:56:08.608Z,18.31
2018-09-21T04:57:08.579Z,18.40
2018-09-21T04:58:08.555Z,18.31
2018-09-21T04:59:08.529Z,18.31
2018-09-21T05:00:08.502Z,18.29
2018-09-21T05:01:15.892Z,18.37
2018-09-21T05:03:01.308Z,18.25
2018-09-21T05:04:01.257Z,18.31
2018-09-21T05:05:54.068Z,18.34
2018-09-21T05:06:54.038Z,18.33
2018-09-21T05:07:54.011Z,18.37
2018-09-21T05:08:54.665Z,18.43
2018-09-21T05:09:53.958Z,18.37
2018-09-21T05:10:53.931Z,18.40
2018-09-21T05:11:53.913Z,18.46
2018-09-21T05:12:53.882Z,18.50
2018-09-21T05:13:53.855Z,18.50
2018-09-21T05:14:53.828Z,18.57
2018-09-21T05:15:53.800Z,18.61
2018-09-21T05:16:53.772Z,18.52
2018-09-21T05:17:53.752Z,18.55
2018-09-21T05:18:53.719Z,18.72
2018-09-21T05:19:53.793Z,18.73
2018-09-21T05:20:53.669Z,18.74
2018-09-21T05:21:53.642Z,18.76
2018-09-21T05:22:53.614Z,18.76
2018-09-21T05:23:53.588Z,18.72
2018-09-21T05:24:53.564Z,18.64
2018-09-21T05:25:53.537Z,18.76
2018-09-21T05:26:53.508Z,18.76
2018-09-21T05:27:54.174Z,18.72
2018-09-21T05:28:53.459Z,18.73
2018-09-21T05:29:53.432Z,18.65
2018-09-21T05:30:53.404Z,18.59
2018-09-21T05:31:53.379Z,18.62
2018-09-21T05:32:53.353Z,18.74
2018-09-21T05:33:53.330Z,18.72
2018-09-21T05:34:53.308Z,18.72
2018-09-21T05:35:53.272Z,18.73
2018-09-21T05:36:53.248Z,18.65
2018-09-21T05:37:53.222Z,18.65
2018-09-21T05:38:53.194Z,18.79
2018-09-21T05:39:53.177Z,18.76
2018-09-21T05:40:53.141Z,18.86
2018-09-21T05:41:53.118Z,18.91
2018-09-21T05:42:53.092Z,18.90
2018-09-21T05:43:53.066Z,18.90
2018-09-21T05:44:53.038Z,18.99
2018-09-21T05:45:53.012Z,18.98
2018-09-21T05:46:52.989Z,19.01
2018-09-21T05:47:52.960Z,19.11
2018-09-21T05:48:52.944Z,19.08
2018-09-21T05:49:52.906Z,19.11
2018-09-21T05:50:52.882Z,19.13
2018-09-21T05:51:52.856Z,19.15
2018-09-21T05:52:52.830Z,19.24
2018-09-21T05:53:52.803Z,19.28
2018-09-21T05:54:52.777Z,19.33
2018-09-21T05:55:52.755Z,19.33
2018-09-21T05:56:52.725Z,19.42
2018-09-21T05:57:53.675Z,19.47
2018-09-21T05:58:52.675Z,19.43
2018-09-21T05:59:52.656Z,19.54
2018-09-21T06:00:52.624Z,19.57
2018-09-21T06:01:52.600Z,19.55
2018-09-21T06:02:52.629Z,19.65
2018-09-21T06:03:52.545Z,19.69
2018-09-21T06:04:52.524Z,19.80
2018-09-21T06:05:52.498Z,19.80
2018-09-21T06:06:52.470Z,19.94
2018-09-21T06:07:52.524Z,19.87
2018-09-21T06:08:52.421Z,20.02
2018-09-21T06:09:52.395Z,20.08
2018-09-21T06:10:52.374Z,20.10
2018-09-21T06:11:52.345Z,20.18
2018-09-21T06:12:52.323Z,20.12
2018-09-21T06:13:52.331Z,20.18
2018-09-21T06:14:52.271Z,20.23
2018-09-21T06:15:52.245Z,20.28
2018-09-21T06:16:52.221Z,20.28
2018-09-21T06:17:53.177Z,20.34
2018-09-21T06:18:52.171Z,20.38
2018-09-21T06:19:52.147Z,20.43
2018-09-21T06:20:52.125Z,20.54
2018-09-21T06:21:52.097Z,20.58
2018-09-21T06:22:52.105Z,20.66
2018-09-21T06:23:52.048Z,20.64
2018-09-21T06:24:52.025Z,20.68
2018-09-21T06:25:52.002Z,20.80
2018-09-21T06:26:51.978Z,20.77
2018-09-21T06:27:51.951Z,20.87
2018-09-21T06:28:51.928Z,20.96
2018-09-21T06:29:51.907Z,21.04
2018-09-21T06:30:51.879Z,21.06
2018-09-21T06:31:51.861Z,21.09
2018-09-21T06:32:51.831Z,21.26
2018-09-21T06:33:51.809Z,21.27
2018-09-21T06:34:51.783Z,21.35
2018-09-21T06:35:51.762Z,21.41
2018-09-21T06:36:51.737Z,21.48
2018-09-21T06:37:51.713Z,21.59
2018-09-21T06:38:51.690Z,21.63
2018-09-21T06:39:51.667Z,21.63
2018-09-21T06:40:51.645Z,21.66
2018-09-21T06:41:51.620Z,21.72
2018-09-21T06:42:51.599Z,21.79
2018-09-21T06:43:51.577Z,21.67
2018-09-21T06:44:51.551Z,21.66
2018-09-21T06:45:51.530Z,21.74
2018-09-21T06:46:51.505Z,21.64
2018-09-21T06:47:51.481Z,21.67
2018-09-21T06:48:51.461Z,21.69
2018-09-21T06:49:51.466Z,21.57
2018-09-21T06:50:51.413Z,21.74
2018-09-21T06:51:51.391Z,21.69
2018-09-21T06:52:51.369Z,21.66
2018-09-21T06:53:51.345Z,21.69
2018-09-21T06:54:51.323Z,21.69
2018-09-21T06:55:51.299Z,21.67
2018-09-21T06:56:51.275Z,21.67
2018-09-21T06:57:51.259Z,21.60
2018-09-21T06:58:51.233Z,21.60
2018-09-21T06:59:51.211Z,21.74
2018-09-21T07:00:51.187Z,21.74
2018-09-21T07:01:51.210Z,21.83
2018-09-21T07:02:51.144Z,21.88
2018-09-21T07:03:51.124Z,21.72
2018-09-21T07:04:51.097Z,21.63
2018-09-21T07:05:51.073Z,21.74
2018-09-21T07:06:51.053Z,21.64
2018-09-21T07:07:51.028Z,21.63
2018-09-21T07:08:51.007Z,21.48
2018-09-21T07:09:51.006Z,21.51
2018-09-21T07:10:50.967Z,21.48
2018-09-21T07:11:50.936Z,21.45
2018-09-21T07:12:50.915Z,21.54
2018-09-21T07:13:50.891Z,21.67
2018-09-21T07:14:50.870Z,21.59
2018-09-21T07:15:50.855Z,21.60
2018-09-21T07:16:50.827Z,21.60
2018-09-21T07:17:50.800Z,21.69
2018-09-21T07:18:50.783Z,21.72
2018-09-21T07:19:50.752Z,21.75
2018-09-21T07:20:50.735Z,21.83
2018-09-21T07:21:50.710Z,21.95
2018-09-21T07:22:50.685Z,21.92
2018-09-21T07:23:50.663Z,21.97
2018-09-21T07:24:50.649Z,22.04
2018-09-21T07:25:50.623Z,22.09
2018-09-21T07:26:50.598Z,22.14
2018-09-21T07:27:50.575Z,22.22
2018-09-21T07:28:50.550Z,22.32
2018-09-21T07:29:50.533Z,22.28
2018-09-21T07:30:50.517Z,22.29
2018-09-21T07:31:50.492Z,22.39
2018-09-21T07:32:50.462Z,22.47
2018-09-21T07:33:50.438Z,22.47
2018-09-21T07:34:50.417Z,22.49
2018-09-21T07:35:50.397Z,22.50
2018-09-21T07:36:50.373Z,22.57
2018-09-21T07:37:50.352Z,22.53
2018-09-21T07:38:50.326Z,22.46
2018-09-21T07:39:50.304Z,22.67
2018-09-21T07:40:50.290Z,22.64
2018-09-21T07:41:50.261Z,22.68
2018-09-21T07:42:50.293Z,22.77
2018-09-21T07:43:50.214Z,22.86
2018-09-21T07:44:50.200Z,22.92
2018-09-21T07:45:50.174Z,22.83
2018-09-21T07:46:50.160Z,22.83
2018-09-21T07:47:50.127Z,22.71
2018-09-21T07:48:50.127Z,22.82
2018-09-21T07:49:50.085Z,22.89
2018-09-21T07:50:50.064Z,22.90
2018-09-21T07:51:50.045Z,22.90
2018-09-21T07:52:50.019Z,23.01
2018-09-21T07:53:50.001Z,23.02
2018-09-21T07:54:49.979Z,23.12
2018-09-21T07:55:49.957Z,23.01
2018-09-21T07:56:49.932Z,23.12
2018-09-21T07:57:49.911Z,23.20
2018-09-21T07:58:49.887Z,23.20
2018-09-21T07:59:49.868Z,23.26
2018-09-21T08:00:49.846Z,23.32
2018-09-21T08:01:49.826Z,23.34
2018-09-21T08:02:49.803Z,23.47
2018-09-21T08:03:49.780Z,23.34
2018-09-21T08:04:49.761Z,23.46
2018-09-21T08:05:49.739Z,23.58
2018-09-21T08:06:49.718Z,23.55
2018-09-21T08:07:49.696Z,23.50
2018-09-21T08:08:49.679Z,23.62
2018-09-21T08:09:49.654Z,23.50
2018-09-21T08:10:49.636Z,23.53
2018-09-21T08:11:49.612Z,23.64
2018-09-21T08:12:49.592Z,23.60
2018-09-21T08:13:49.571Z,23.64
2018-09-21T08:14:49.548Z,23.72
2018-09-21T08:15:49.526Z,23.82
2018-09-21T08:16:49.509Z,23.82
2018-09-21T08:17:49.487Z,23.98
2018-09-21T08:18:49.467Z,23.94
2018-09-21T08:19:49.444Z,23.92
2018-09-21T08:20:49.424Z,24.00
2018-09-21T08:21:49.416Z,24.04
2018-09-21T08:22:49.382Z,24.08
2018-09-21T08:23:49.361Z,24.22
2018-09-21T08:24:49.342Z,24.26
2018-09-21T08:25:49.320Z,24.32
2018-09-21T08:26:49.305Z,24.38
2018-09-21T08:27:49.280Z,24.45
2018-09-21T08:28:49.258Z,24.52
2018-09-21T08:29:49.241Z,24.75
2018-09-21T08:30:49.216Z,24.69
2018-09-21T08:31:49.198Z,24.69
2018-09-21T08:32:49.179Z,24.63
2018-09-21T08:33:49.163Z,24.71
2018-09-21T08:34:49.139Z,24.73
2018-09-21T08:35:49.117Z,24.68
2018-09-21T08:36:49.099Z,24.73
2018-09-21T08:37:49.079Z,24.60
2018-09-21T08:38:49.059Z,24.76
2018-09-21T08:39:49.041Z,24.83
2018-09-21T08:40:49.017Z,24.88
2018-09-21T08:41:48.998Z,25.02
2018-09-21T08:42:48.994Z,25.07
2018-09-21T08:43:48.958Z,25.19
2018-09-21T08:44:48.942Z,25.35
2018-09-21T08:45:48.920Z,25.42
2018-09-21T08:46:48.898Z,25.28
2018-09-21T08:47:48.879Z,25.32
2018-09-21T08:48:48.867Z,25.27
2018-09-21T08:49:48.847Z,25.34
2018-09-21T08:50:48.823Z,25.44
2018-09-21T08:51:48.881Z,25.52
2018-09-21T08:52:48.781Z,25.52
2018-09-21T08:53:48.765Z,25.57
2018-09-21T08:54:48.747Z,25.54
2018-09-21T08:55:48.725Z,25.67
2018-09-21T08:56:48.710Z,25.72
2018-09-21T08:57:48.686Z,25.72
2018-09-21T08:58:48.668Z,25.72
2018-09-21T08:59:48.653Z,25.75
2018-09-21T09:00:48.632Z,25.89
2018-09-21T09:01:48.613Z,25.79
2018-09-21T09:02:48.642Z,25.84
2018-09-21T09:03:48.572Z,25.98
2018-09-21T09:04:48.552Z,26.09
2018-09-21T09:05:48.534Z,26.22
2018-09-21T09:06:48.517Z,26.08
2018-09-21T09:07:48.497Z,26.12
2018-09-21T09:08:48.479Z,26.01
2018-09-21T09:09:48.461Z,26.18
2018-09-21T09:10:48.443Z,26.29
2018-09-21T09:11:48.423Z,26.47
2018-09-21T09:12:48.406Z,26.40
2018-09-21T09:13:48.387Z,26.58
2018-09-21T09:14:48.368Z,26.47
2018-09-21T09:15:48.350Z,26.47
2018-09-21T09:16:48.333Z,26.49
2018-09-21T09:17:48.318Z,26.62
2018-09-21T09:18:48.297Z,26.49
2018-09-21T09:19:48.281Z,26.58
2018-09-21T09:20:48.259Z,26.59
2018-09-21T09:21:48.242Z,26.55
2018-09-21T09:22:48.245Z,26.49
2018-09-21T09:23:48.206Z,26.44
2018-09-21T09:24:48.189Z,26.35
2018-09-21T09:25:48.170Z,26.36
2018-09-21T09:26:48.165Z,26.28
2018-09-21T09:27:48.133Z,26.28
2018-09-21T09:28:48.115Z,26.27
2018-09-21T09:29:48.113Z,26.36
2018-09-21T09:30:48.080Z,26.25
2018-09-21T09:31:48.063Z,26.17
2018-09-21T09:32:48.046Z,26.11
2018-09-21T09:33:48.025Z,25.99
2018-09-21T09:34:48.006Z,26.02
2018-09-21T09:35:47.993Z,26.02
2018-09-21T09:36:47.998Z,26.27
2018-09-21T09:37:47.950Z,26.25
2018-09-21T09:38:47.934Z,26.39
2018-09-21T09:39:47.914Z,26.49
2018-09-21T09:40:47.898Z,26.62
2018-09-21T09:41:47.881Z,26.61
2018-09-21T09:42:47.873Z,26.67
2018-09-21T09:43:47.849Z,26.67
2018-09-21T09:44:47.825Z,26.74
2018-09-21T09:45:47.807Z,26.92
2018-09-21T09:46:47.789Z,26.94
2018-09-21T09:47:47.837Z,27.11
2018-09-21T09:48:47.832Z,27.21
2018-09-21T09:49:47.734Z,27.24
2018-09-21T09:50:48.234Z,27.38
2018-09-21T09:51:47.697Z,27.32
2018-09-21T09:52:47.677Z,27.33
2018-09-21T09:53:47.662Z,27.46
2018-09-21T09:54:47.712Z,27.51
2018-09-21T09:55:47.631Z,27.50
2018-09-21T09:56:47.603Z,27.43
2018-09-21T09:57:47.589Z,27.64
2018-09-21T09:58:47.570Z,27.61
2018-09-21T09:59:47.554Z,27.66
2018-09-21T10:00:47.536Z,27.76
2018-09-21T10:01:47.517Z,27.73
2018-09-21T10:02:47.499Z,27.69
2018-09-21T10:03:47.500Z,27.67
2018-09-21T10:04:47.467Z,27.58
2018-09-21T10:05:47.450Z,27.48
2018-09-21T10:06:47.432Z,27.48
2018-09-21T10:07:47.414Z,27.47
2018-09-21T10:08:47.398Z,27.58
2018-09-21T10:09:47.382Z,27.71
2018-09-21T10:10:47.361Z,27.79
2018-09-21T10:11:47.344Z,27.94
2018-09-21T10:12:47.336Z,27.95
2018-09-21T10:13:47.309Z,28.01
2018-09-21T10:14:47.293Z,28.09
2018-09-21T10:15:47.273Z,28.41
2018-09-21T10:16:47.259Z,28.63
2018-09-21T10:17:47.241Z,28.78
2018-09-21T10:18:47.223Z,28.75
2018-09-21T10:19:47.206Z,28.43
2018-09-21T10:20:47.270Z,28.40
2018-09-21T10:21:47.173Z,28.31
2018-09-21T10:22:47.158Z,28.28
2018-09-21T10:23:47.138Z,28.50
2018-09-21T10:24:47.120Z,28.31
2018-09-21T10:25:47.105Z,28.17
2018-09-21T10:26:47.142Z,28.10
2018-09-21T10:27:47.196Z,27.96
2018-09-21T10:28:47.283Z,27.94
2018-09-21T10:29:47.046Z,27.89
2018-09-21T10:30:47.023Z,27.80
2018-09-21T10:31:47.006Z,27.98
2018-09-21T10:32:46.990Z,27.96
2018-09-21T10:33:47.170Z,28.19
2018-09-21T10:34:46.953Z,28.22
2018-09-21T10:35:47.026Z,28.47
2018-09-21T10:36:46.923Z,28.54
2018-09-21T10:37:46.904Z,28.48
2018-09-21T10:38:46.918Z,28.33
2018-09-21T10:39:46.870Z,28.22
2018-09-21T10:40:46.854Z,28.19
2018-09-21T10:41:46.837Z,28.22
2018-09-21T10:42:46.932Z,28.23
2018-09-21T10:43:46.806Z,28.22
2018-09-21T10:44:46.787Z,28.26
2018-09-21T10:45:46.770Z,28.23
2018-09-21T10:46:46.752Z,28.21
2018-09-21T10:47:54.153Z,28.28
2018-09-21T10:49:40.163Z,28.25
2018-09-21T10:50:40.147Z,28.31
2018-09-21T10:52:33.483Z,28.32
2018-09-21T10:53:33.427Z,28.28
2018-09-21T10:55:26.294Z,28.35
2018-09-21T10:56:26.239Z,28.33
2018-09-21T10:58:19.099Z,28.32
2018-09-21T10:59:19.060Z,28.56
2018-09-21T11:01:12.177Z,28.58
2018-09-21T11:02:12.155Z,28.51
2018-09-21T11:04:05.019Z,28.48
2018-09-21T11:05:04.964Z,28.44
2018-09-21T11:06:57.799Z,28.54
2018-09-21T11:07:57.779Z,28.58
2018-09-21T11:09:50.639Z,28.63
2018-09-21T11:10:50.589Z,28.72
2018-09-21T11:12:44.948Z,28.53
2018-09-21T11:13:44.908Z,28.43
2018-09-21T11:15:39.276Z,28.36
2018-09-21T11:16:39.229Z,28.41
2018-09-21T11:18:32.347Z,28.43
2018-09-21T11:19:32.326Z,28.36
2018-09-21T11:21:25.183Z,28.31
2018-09-21T11:22:25.139Z,28.43
2018-09-21T11:24:18.284Z,28.41
2018-09-21T11:25:18.242Z,28.46
2018-09-21T11:27:11.105Z,28.54
2018-09-21T11:28:11.053Z,28.46
2018-09-21T11:30:04.215Z,28.36
2018-09-21T11:31:04.159Z,28.33
2018-09-21T11:32:57.496Z,28.26
2018-09-21T11:33:57.467Z,28.22
2018-09-21T11:35:50.613Z,28.21
2018-09-21T11:36:50.572Z,28.25
2018-09-21T11:38:43.417Z,28.40
2018-09-21T11:39:43.380Z,28.22
2018-09-21T11:41:36.800Z,28.16
2018-09-21T11:42:36.195Z,28.13
2018-09-21T11:44:29.051Z,28.35
2018-09-21T11:45:29.006Z,28.36
2018-09-21T11:47:22.290Z,28.29
2018-09-21T11:48:22.110Z,28.29
2018-09-21T11:50:14.966Z,28.47
2018-09-21T11:51:14.920Z,28.46
2018-09-21T11:53:08.251Z,28.58
2018-09-21T11:54:08.236Z,28.51
2018-09-21T11:56:01.590Z,28.62
2018-09-21T11:57:01.547Z,28.69
2018-09-21T11:58:55.392Z,28.65
2018-09-21T11:59:55.362Z,28.69
2018-09-21T12:01:49.338Z,28.66
2018-09-21T12:02:48.462Z,28.63
2018-09-21T12:04:41.820Z,28.40
2018-09-21T12:05:41.782Z,28.22
2018-09-21T12:07:34.641Z,28.11
2018-09-21T12:08:34.587Z,28.03
2018-09-21T12:10:28.271Z,28.04
2018-09-21T12:11:28.194Z,28.04
2018-09-21T12:13:21.043Z,28.16
2018-09-21T12:14:21.001Z,28.14
2018-09-21T12:16:14.351Z,28.13
2018-09-21T12:17:14.306Z,28.06
2018-09-21T12:19:07.161Z,28.04
2018-09-21T12:20:07.116Z,27.96
2018-09-21T12:21:07.099Z,27.94
2018-09-21T12:22:07.089Z,28.01
2018-09-21T12:23:07.064Z,28.01
2018-09-21T12:24:07.047Z,27.86
2018-09-21T12:25:07.029Z,27.76
2018-09-21T12:26:07.013Z,27.82
2018-09-21T12:27:06.996Z,27.84
2018-09-21T12:28:06.979Z,27.71
2018-09-21T12:29:06.961Z,27.67
2018-09-21T12:30:06.943Z,27.76
2018-09-21T12:31:06.926Z,27.61
2018-09-21T12:32:06.907Z,27.54
2018-09-21T12:33:06.890Z,27.59
2018-09-21T12:34:06.872Z,27.57
2018-09-21T12:35:06.856Z,27.57
2018-09-21T12:36:06.915Z,27.51
2018-09-21T12:37:06.819Z,27.47
2018-09-21T12:38:06.804Z,27.47
2018-09-21T12:39:06.788Z,27.43
2018-09-21T12:40:06.765Z,27.48
2018-09-21T12:41:06.748Z,27.41
2018-09-21T12:42:06.730Z,27.46
2018-09-21T12:43:06.713Z,27.39
2018-09-21T12:44:06.693Z,27.43
2018-09-21T12:45:06.681Z,27.43
2018-09-21T12:46:07.234Z,27.59
2018-09-21T12:47:06.640Z,27.54
2018-09-21T12:48:06.621Z,27.51
2018-09-21T12:49:06.603Z,27.58
2018-09-21T12:50:06.586Z,27.58
2018-09-21T12:51:06.568Z,27.50
2018-09-21T12:52:06.552Z,27.41
2018-09-21T12:53:06.533Z,27.35
2018-09-21T12:54:06.512Z,27.39
2018-09-21T12:55:06.498Z,27.36
2018-09-21T12:56:06.487Z,27.35
2018-09-21T12:57:06.462Z,27.32
2018-09-21T12:58:06.510Z,27.33
2018-09-21T12:59:06.423Z,27.16
2018-09-21T13:00:06.404Z,27.02
2018-09-21T13:01:06.386Z,27.05
2018-09-21T13:02:06.367Z,26.99
2018-09-21T13:03:06.349Z,26.89
2018-09-21T13:04:06.329Z,26.83
2018-09-21T13:05:06.317Z,26.80
2018-09-21T13:06:06.335Z,26.72
2018-09-21T13:07:06.276Z,26.62
2018-09-21T13:08:06.262Z,26.73
2018-09-21T13:09:06.238Z,26.64
2018-09-21T13:10:06.217Z,26.62
2018-09-21T13:11:06.198Z,26.59
2018-09-21T13:12:06.179Z,26.69
2018-09-21T13:13:07.735Z,26.58
2018-09-21T13:14:06.141Z,26.58
2018-09-21T13:15:06.126Z,26.61
2018-09-21T13:16:06.102Z,26.64
2018-09-21T13:17:06.088Z,26.62
2018-09-21T13:18:06.064Z,26.57
2018-09-21T13:19:06.047Z,26.54
2018-09-21T13:20:06.023Z,26.46
2018-09-21T13:21:06.006Z,26.50
2018-09-21T13:22:05.987Z,26.47